sensor_id;sensor_type;location;lat;lon;timestamp;temperature;humidity
16172;DHT22;8192;53.596;10.166;2022-10-30T00:00:23;11.80;99.90
16172;DHT22;8192;53.596;10.166;2022-10-30T00:06:56;12.20;99.90
16172;DHT22;8192;53.596;10.166;2022-10-30T00:09:38;12.10;99.90
16172;DHT22;8192;53.596;10.166;2022-10-30T00:12:06;14.00;99.90
16172;DHT22;8192;53.596;10.166;2022-10-30T00:14:39;12.00;99.90
16172;DHT22;8192;53.596;10.166;2022-10-30T00:17:07;12.00;99.90
16172;DHT22;8192;53.596;10.166;2022-10-30T00:19:36;12.60;99.90
16172;DHT22;8192;53.596;10.166;2022-10-30T00:22:05;11.90;99.90
16172;DHT22;8192;53.596;10.166;2022-10-30T00:24:34;13.30;99.90
16172;DHT22;8192;53.596;10.166;2022-10-30T00:27:34;11.90;99.90
16172;DHT22;8192;53.596;10.166;2022-10-30T00:33:21;11.90;99.90
16172;DHT22;8192;53.596;10.166;2022-10-30T00:35:49;12.00;99.90
16172;DHT22;8192;53.596;10.166;2022-10-30T00:38:19;11.80;99.90
16172;DHT22;8192;53.596;10.166;2022-10-30T00:44:31;11.90;99.90
16172;DHT22;8192;53.596;10.166;2022-10-30T00:47:00;11.80;99.90
16172;DHT22;8192;53.596;10.166;2022-10-30T00:49:32;11.90;99.90
16172;DHT22;8192;53.596;10.166;2022-10-30T00:52:04;11.90;99.90
16172;DHT22;8192;53.596;10.166;2022-10-30T00:54:34;11.90;99.90
16172;DHT22;8192;53.596;10.166;2022-10-30T01:16:51;11.50;99.90
16172;DHT22;8192;53.596;10.166;2022-10-30T01:19:24;11.60;99.90
16172;DHT22;8192;53.596;10.166;2022-10-30T01:22:06;11.50;99.90
16172;DHT22;8192;53.596;10.166;2022-10-30T01:24:48;13.20;99.90
16172;DHT22;8192;53.596;10.166;2022-10-30T01:27:29;11.40;99.90
16172;DHT22;8192;53.596;10.166;2022-10-30T01:30:09;11.30;99.90
16172;DHT22;8192;53.596;10.166;2022-10-30T01:32:48;11.30;99.90
16172;DHT22;8192;53.596;10.166;2022-10-30T01:35:22;11.20;99.90
16172;DHT22;8192;53.596;10.166;2022-10-30T01:37:56;11.20;99.90
16172;DHT22;8192;53.596;10.166;2022-10-30T01:40:24;11.30;99.90
16172;DHT22;8192;53.596;10.166;2022-10-30T01:42:58;12.50;99.90
16172;DHT22;8192;53.596;10.166;2022-10-30T01:45:35;11.60;99.90
16172;DHT22;8192;53.596;10.166;2022-10-30T01:48:24;11.70;99.90
16172;DHT22;8192;53.596;10.166;2022-10-30T01:50:56;11.70;99.90
16172;DHT22;8192;53.596;10.166;2022-10-30T01:53:36;11.70;99.90
16172;DHT22;8192;53.596;10.166;2022-10-30T01:56:17;12.90;99.90
16172;DHT22;8192;53.596;10.166;2022-10-30T01:58:53;11.60;99.90
16172;DHT22;8192;53.596;10.166;2022-10-30T02:01:25;11.50;99.90
16172;DHT22;8192;53.596;10.166;2022-10-30T02:03:56;11.60;99.90
16172;DHT22;8192;53.596;10.166;2022-10-30T02:06:23;11.60;99.90
16172;DHT22;8192;53.596;10.166;2022-10-30T02:12:22;11.70;99.90
16172;DHT22;8192;53.596;10.166;2022-10-30T02:14:53;10.30;99.90
16172;DHT22;8192;53.596;10.166;2022-10-30T02:20:47;11.20;99.90
16172;DHT22;8192;53.596;10.166;2022-10-30T02:23:14;9.90;99.90
16172;DHT22;8192;53.596;10.166;2022-10-30T02:25:43;11.10;99.90
16172;DHT22;8192;53.596;10.166;2022-10-30T02:58:06;10.60;99.90
16172;DHT22;8192;53.596;10.166;2022-10-30T03:00:33;10.50;99.90
16172;DHT22;8192;53.596;10.166;2022-10-30T03:03:00;11.40;99.90
16172;DHT22;8192;53.596;10.166;2022-10-30T03:05:27;10.40;99.90
16172;DHT22;8192;53.596;10.166;2022-10-30T03:07:54;10.40;99.90
16172;DHT22;8192;53.596;10.166;2022-10-30T03:10:22;11.50;99.90
16172;DHT22;8192;53.596;10.166;2022-10-30T03:29:42;10.20;99.90
16172;DHT22;8192;53.596;10.166;2022-10-30T03:32:12;8.40;99.90
16172;DHT22;8192;53.596;10.166;2022-10-30T03:35:32;10.30;99.90
16172;DHT22;8192;53.596;10.166;2022-10-30T03:38:12;10.20;99.90
16172;DHT22;8192;53.596;10.166;2022-10-30T03:40:40;11.40;99.90
16172;DHT22;8192;53.596;10.166;2022-10-30T03:43:09;11.40;99.90
16172;DHT22;8192;53.596;10.166;2022-10-30T03:45:38;10.60;99.90
16172;DHT22;8192;53.596;10.166;2022-10-30T03:48:09;10.10;99.90
16172;DHT22;8192;53.596;10.166;2022-10-30T04:01:42;9.30;99.90
16172;DHT22;8192;53.596;10.166;2022-10-30T04:04:10;8.30;99.90
16172;DHT22;8192;53.596;10.166;2022-10-30T04:14:44;10.00;99.90
16172;DHT22;8192;53.596;10.166;2022-10-30T04:17:13;11.30;99.90
16172;DHT22;8192;53.596;10.166;2022-10-30T04:19:41;9.80;99.90
16172;DHT22;8192;53.596;10.166;2022-10-30T04:25:31;10.00;99.90
16172;DHT22;8192;53.596;10.166;2022-10-30T04:28:16;11.40;99.90
16172;DHT22;8192;53.596;10.166;2022-10-30T04:31:00;10.00;99.90
16172;DHT22;8192;53.596;10.166;2022-10-30T04:47:50;9.40;99.90
16172;DHT22;8192;53.596;10.166;2022-10-30T04:50:18;9.70;99.90
16172;DHT22;8192;53.596;10.166;2022-10-30T04:55:52;9.60;99.90
16172;DHT22;8192;53.596;10.166;2022-10-30T04:58:19;9.70;99.90
16172;DHT22;8192;53.596;10.166;2022-10-30T05:00:47;9.70;99.90
16172;DHT22;8192;53.596;10.166;2022-10-30T05:03:48;10.40;99.90
16172;DHT22;8192;53.596;10.166;2022-10-30T05:06:21;9.60;99.90
16172;DHT22;8192;53.596;10.166;2022-10-30T05:08:49;9.50;99.90
16172;DHT22;8192;53.596;10.166;2022-10-30T05:11:17;9.80;99.90
16172;DHT22;8192;53.596;10.166;2022-10-30T05:13:46;9.70;99.90
16172;DHT22;8192;53.596;10.166;2022-10-30T05:16:14;8.10;99.90
16172;DHT22;8192;53.596;10.166;2022-10-30T05:18:42;9.60;99.90
16172;DHT22;8192;53.596;10.166;2022-10-30T05:21:11;9.70;99.90
16172;DHT22;8192;53.596;10.166;2022-10-30T05:23:41;9.70;99.90
16172;DHT22;8192;53.596;10.166;2022-10-30T05:26:09;11.50;99.90
16172;DHT22;8192;53.596;10.166;2022-10-30T05:28:39;10.00;99.90
16172;DHT22;8192;53.596;10.166;2022-10-30T05:42:29;10.20;99.90
16172;DHT22;8192;53.596;10.166;2022-10-30T05:44:59;9.20;99.90
16172;DHT22;8192;53.596;10.166;2022-10-30T05:47:34;10.90;99.90
16172;DHT22;8192;53.596;10.166;2022-10-30T05:50:40;9.60;99.90
16172;DHT22;8192;53.596;10.166;2022-10-30T06:08:06;9.40;99.90
16172;DHT22;8192;53.596;10.166;2022-10-30T06:10:35;9.50;99.90
16172;DHT22;8192;53.596;10.166;2022-10-30T06:13:05;9.60;99.90
16172;DHT22;8192;53.596;10.166;2022-10-30T06:21:12;9.50;99.90
16172;DHT22;8192;53.596;10.166;2022-10-30T06:23:42;9.70;99.90
16172;DHT22;8192;53.596;10.166;2022-10-30T06:26:13;9.80;99.90
16172;DHT22;8192;53.596;10.166;2022-10-30T06:37:44;9.50;99.90
16172;DHT22;8192;53.596;10.166;2022-10-30T06:40:17;9.70;99.90
16172;DHT22;8192;53.596;10.166;2022-10-30T06:42:47;9.50;99.90
16172;DHT22;8192;53.596;10.166;2022-10-30T06:45:17;9.60;99.90
16172;DHT22;8192;53.596;10.166;2022-10-30T06:53:16;9.80;99.90
16172;DHT22;8192;53.596;10.166;2022-10-30T06:55:53;8.40;99.90
16172;DHT22;8192;53.596;10.166;2022-10-30T07:01:19;10.10;99.90
16172;DHT22;8192;53.596;10.166;2022-10-30T07:03:49;11.70;99.90
16172;DHT22;8192;53.596;10.166;2022-10-30T07:06:16;10.40;99.90
16172;DHT22;8192;53.596;10.166;2022-10-30T07:08:43;11.10;99.90
16172;DHT22;8192;53.596;10.166;2022-10-30T07:11:15;12.50;99.90
16172;DHT22;8192;53.596;10.166;2022-10-30T07:13:45;10.70;99.90
16172;DHT22;8192;53.596;10.166;2022-10-30T07:16:13;11.60;99.90
16172;DHT22;8192;53.596;10.166;2022-10-30T07:18:40;11.60;99.90
16172;DHT22;8192;53.596;10.166;2022-10-30T07:21:07;12.00;99.90
16172;DHT22;8192;53.596;10.166;2022-10-30T07:23:36;11.10;99.90
16172;DHT22;8192;53.596;10.166;2022-10-30T07:29:09;11.10;99.90
16172;DHT22;8192;53.596;10.166;2022-10-30T07:31:36;11.20;99.90
16172;DHT22;8192;53.596;10.166;2022-10-30T07:34:11;11.20;99.90
16172;DHT22;8192;53.596;10.166;2022-10-30T07:36:38;11.30;99.90
16172;DHT22;8192;53.596;10.166;2022-10-30T07:39:06;11.30;99.90
16172;DHT22;8192;53.596;10.166;2022-10-30T07:41:35;10.60;99.90
16172;DHT22;8192;53.596;10.166;2022-10-30T07:44:08;12.80;99.90
16172;DHT22;8192;53.596;10.166;2022-10-30T07:49:58;11.50;99.90
16172;DHT22;8192;53.596;10.166;2022-10-30T07:52:25;11.60;99.90
16172;DHT22;8192;53.596;10.166;2022-10-30T07:54:57;10.90;99.90
16172;DHT22;8192;53.596;10.166;2022-10-30T07:57:24;11.60;99.90
16172;DHT22;8192;53.596;10.166;2022-10-30T07:59:53;12.00;99.90
16172;DHT22;8192;53.596;10.166;2022-10-30T08:02:20;13.00;99.90
16172;DHT22;8192;53.596;10.166;2022-10-30T08:04:47;13.90;99.90
16172;DHT22;8192;53.596;10.166;2022-10-30T08:07:29;13.90;99.90
16172;DHT22;8192;53.596;10.166;2022-10-30T08:09:56;14.40;99.90
16172;DHT22;8192;53.596;10.166;2022-10-30T08:12:25;13.30;99.90
16172;DHT22;8192;53.596;10.166;2022-10-30T08:14:56;14.70;99.90
16172;DHT22;8192;53.596;10.166;2022-10-30T08:17:29;13.60;99.90
16172;DHT22;8192;53.596;10.166;2022-10-30T08:20:01;13.80;99.90
16172;DHT22;8192;53.596;10.166;2022-10-30T08:22:28;13.90;99.90
16172;DHT22;8192;53.596;10.166;2022-10-30T08:24:56;14.10;99.90
16172;DHT22;8192;53.596;10.166;2022-10-30T08:27:23;13.90;99.90
16172;DHT22;8192;53.596;10.166;2022-10-30T08:30:06;14.40;99.90
16172;DHT22;8192;53.596;10.166;2022-10-30T08:32:39;14.00;99.90
16172;DHT22;8192;53.596;10.166;2022-10-30T08:35:08;14.00;99.90
16172;DHT22;8192;53.596;10.166;2022-10-30T08:37:35;13.90;99.90
16172;DHT22;8192;53.596;10.166;2022-10-30T08:40:16;13.90;99.90
16172;DHT22;8192;53.596;10.166;2022-10-30T08:42:49;13.90;99.90
16172;DHT22;8192;53.596;10.166;2022-10-30T08:45:18;13.80;99.90
16172;DHT22;8192;53.596;10.166;2022-10-30T08:47:45;12.80;99.90
16172;DHT22;8192;53.596;10.166;2022-10-30T08:50:12;14.50;99.90
16172;DHT22;8192;53.596;10.166;2022-10-30T08:52:39;14.80;99.90
16172;DHT22;8192;53.596;10.166;2022-10-30T08:55:07;14.30;99.90
16172;DHT22;8192;53.596;10.166;2022-10-30T08:57:35;13.60;99.90
16172;DHT22;8192;53.596;10.166;2022-10-30T09:00:03;13.60;99.90
16172;DHT22;8192;53.596;10.166;2022-10-30T09:02:32;13.60;99.90
16172;DHT22;8192;53.596;10.166;2022-10-30T09:05:09;14.40;99.90
16172;DHT22;8192;53.596;10.166;2022-10-30T09:07:38;13.60;99.90
16172;DHT22;8192;53.596;10.166;2022-10-30T09:10:06;15.40;99.90
16172;DHT22;8192;53.596;10.166;2022-10-30T09:12:53;13.70;99.90
16172;DHT22;8192;53.596;10.166;2022-10-30T09:15:24;13.90;99.90
16172;DHT22;8192;53.596;10.166;2022-10-30T09:17:57;14.00;99.90
16172;DHT22;8192;53.596;10.166;2022-10-30T09:20:25;14.00;99.90
16172;DHT22;8192;53.596;10.166;2022-10-30T09:22:52;14.10;99.90
16172;DHT22;8192;53.596;10.166;2022-10-30T09:25:19;14.10;99.90
16172;DHT22;8192;53.596;10.166;2022-10-30T09:27:47;14.30;99.90
16172;DHT22;8192;53.596;10.166;2022-10-30T09:30:19;15.60;99.90
16172;DHT22;8192;53.596;10.166;2022-10-30T09:32:53;14.50;99.90
16172;DHT22;8192;53.596;10.166;2022-10-30T09:35:23;14.60;99.90
16172;DHT22;8192;53.596;10.166;2022-10-30T09:37:50;14.60;99.90
16172;DHT22;8192;53.596;10.166;2022-10-30T09:40:22;14.80;99.90
16172;DHT22;8192;53.596;10.166;2022-10-30T09:42:51;14.90;99.90
16172;DHT22;8192;53.596;10.166;2022-10-30T09:45:57;15.00;99.90
16172;DHT22;8192;53.596;10.166;2022-10-30T09:48:37;15.10;99.90
16172;DHT22;8192;53.596;10.166;2022-10-30T09:51:22;15.20;99.90
16172;DHT22;8192;53.596;10.166;2022-10-30T09:53:59;15.30;99.90
16172;DHT22;8192;53.596;10.166;2022-10-30T09:56:33;15.40;99.90
16172;DHT22;8192;53.596;10.166;2022-10-30T09:59:08;15.50;99.90
16172;DHT22;8192;53.596;10.166;2022-10-30T10:01:43;15.60;99.90
16172;DHT22;8192;53.596;10.166;2022-10-30T10:04:21;15.60;99.90
16172;DHT22;8192;53.596;10.166;2022-10-30T10:06:55;15.80;99.90
16172;DHT22;8192;53.596;10.166;2022-10-30T10:09:25;15.90;99.90
16172;DHT22;8192;53.596;10.166;2022-10-30T10:11:55;16.10;99.90
16172;DHT22;8192;53.596;10.166;2022-10-30T10:14:25;16.20;99.90
16172;DHT22;8192;53.596;10.166;2022-10-30T10:17:03;16.20;99.90
16172;DHT22;8192;53.596;10.166;2022-10-30T10:19:34;16.40;99.90
16172;DHT22;8192;53.596;10.166;2022-10-30T10:22:19;16.40;99.90
16172;DHT22;8192;53.596;10.166;2022-10-30T10:24:47;16.50;99.90
16172;DHT22;8192;53.596;10.166;2022-10-30T10:27:42;16.70;99.90
16172;DHT22;8192;53.596;10.166;2022-10-30T10:30:15;16.80;99.90
16172;DHT22;8192;53.596;10.166;2022-10-30T10:32:59;16.80;99.90
16172;DHT22;8192;53.596;10.166;2022-10-30T10:35:42;17.00;99.90
16172;DHT22;8192;53.596;10.166;2022-10-30T10:38:26;17.10;99.90
16172;DHT22;8192;53.596;10.166;2022-10-30T10:41:02;17.10;99.90
16172;DHT22;8192;53.596;10.166;2022-10-30T10:43:43;17.30;99.90
16172;DHT22;8192;53.596;10.166;2022-10-30T10:46:38;17.30;99.90
16172;DHT22;8192;53.596;10.166;2022-10-30T10:49:25;17.40;99.90
16172;DHT22;8192;53.596;10.166;2022-10-30T10:51:57;17.50;99.90
16172;DHT22;8192;53.596;10.166;2022-10-30T10:54:29;17.50;99.90
16172;DHT22;8192;53.596;10.166;2022-10-30T10:56:59;17.60;99.90
16172;DHT22;8192;53.596;10.166;2022-10-30T10:59:33;17.60;99.90
16172;DHT22;8192;53.596;10.166;2022-10-30T11:02:27;17.70;99.90
16172;DHT22;8192;53.596;10.166;2022-10-30T11:04:59;17.80;99.90
16172;DHT22;8192;53.596;10.166;2022-10-30T11:07:30;17.90;99.90
16172;DHT22;8192;53.596;10.166;2022-10-30T11:10:00;18.00;99.90
16172;DHT22;8192;53.596;10.166;2022-10-30T11:12:29;18.00;99.90
16172;DHT22;8192;53.596;10.166;2022-10-30T11:14:59;18.10;99.90
16172;DHT22;8192;53.596;10.166;2022-10-30T11:17:35;18.80;99.90
16172;DHT22;8192;53.596;10.166;2022-10-30T11:20:14;18.20;99.90
16172;DHT22;8192;53.596;10.166;2022-10-30T11:22:46;18.20;99.90
16172;DHT22;8192;53.596;10.166;2022-10-30T11:25:21;18.30;99.90
16172;DHT22;8192;53.596;10.166;2022-10-30T11:27:52;18.40;99.90
16172;DHT22;8192;53.596;10.166;2022-10-30T11:30:22;18.50;99.90
16172;DHT22;8192;53.596;10.166;2022-10-30T11:32:53;18.60;99.90
16172;DHT22;8192;53.596;10.166;2022-10-30T11:35:41;18.70;99.90
16172;DHT22;8192;53.596;10.166;2022-10-30T11:38:15;18.70;99.90
16172;DHT22;8192;53.596;10.166;2022-10-30T11:40:48;18.80;99.90
16172;DHT22;8192;53.596;10.166;2022-10-30T11:43:21;18.80;99.90
16172;DHT22;8192;53.596;10.166;2022-10-30T11:45:50;18.80;99.90
16172;DHT22;8192;53.596;10.166;2022-10-30T11:48:21;18.90;99.90
16172;DHT22;8192;53.596;10.166;2022-10-30T11:50:51;19.00;99.90
16172;DHT22;8192;53.596;10.166;2022-10-30T11:56:30;19.00;99.90
16172;DHT22;8192;53.596;10.166;2022-10-30T11:58:58;19.10;99.90
16172;DHT22;8192;53.596;10.166;2022-10-30T12:01:28;19.10;99.90
16172;DHT22;8192;53.596;10.166;2022-10-30T12:04:11;19.10;99.90
16172;DHT22;8192;53.596;10.166;2022-10-30T12:06:41;19.20;99.90
16172;DHT22;8192;53.596;10.166;2022-10-30T12:09:12;18.10;99.90
16172;DHT22;8192;53.596;10.166;2022-10-30T12:11:42;19.10;99.90
16172;DHT22;8192;53.596;10.166;2022-10-30T12:14:21;19.20;99.90
16172;DHT22;8192;53.596;10.166;2022-10-30T12:16:50;19.20;99.90
16172;DHT22;8192;53.596;10.166;2022-10-30T12:19:20;18.40;99.90
16172;DHT22;8192;53.596;10.166;2022-10-30T12:21:50;19.10;99.90
16172;DHT22;8192;53.596;10.166;2022-10-30T12:24:20;19.00;99.90
16172;DHT22;8192;53.596;10.166;2022-10-30T12:26:52;19.20;99.90
16172;DHT22;8192;53.596;10.166;2022-10-30T12:29:22;19.40;99.90
16172;DHT22;8192;53.596;10.166;2022-10-30T12:31:59;19.30;99.90
16172;DHT22;8192;53.596;10.166;2022-10-30T12:34:37;19.40;99.90
16172;DHT22;8192;53.596;10.166;2022-10-30T12:37:10;19.50;99.90
16172;DHT22;8192;53.596;10.166;2022-10-30T12:39:53;19.60;99.90
16172;DHT22;8192;53.596;10.166;2022-10-30T12:42:24;18.50;99.90
16172;DHT22;8192;53.596;10.166;2022-10-30T12:45:06;19.60;99.90
16172;DHT22;8192;53.596;10.166;2022-10-30T12:47:38;19.70;99.90
16172;DHT22;8192;53.596;10.166;2022-10-30T12:50:15;19.60;99.90
16172;DHT22;8192;53.596;10.166;2022-10-30T12:52:45;19.50;99.90
16172;DHT22;8192;53.596;10.166;2022-10-30T12:55:17;19.60;99.90
16172;DHT22;8192;53.596;10.166;2022-10-30T12:57:51;19.50;99.90
16172;DHT22;8192;53.596;10.166;2022-10-30T13:00:20;19.50;99.90
16172;DHT22;8192;53.596;10.166;2022-10-30T13:02:55;19.30;99.90
16172;DHT22;8192;53.596;10.166;2022-10-30T13:05:27;19.30;99.90
16172;DHT22;8192;53.596;10.166;2022-10-30T13:10:51;19.50;99.90
16172;DHT22;8192;53.596;10.166;2022-10-30T13:13:22;19.50;99.90
16172;DHT22;8192;53.596;10.166;2022-10-30T13:15:51;19.50;99.90
16172;DHT22;8192;53.596;10.166;2022-10-30T13:18:20;19.50;99.90
16172;DHT22;8192;53.596;10.166;2022-10-30T13:20:57;19.50;99.90
16172;DHT22;8192;53.596;10.166;2022-10-30T13:23:30;19.50;99.90
16172;DHT22;8192;53.596;10.166;2022-10-30T13:26:08;19.50;99.90
16172;DHT22;8192;53.596;10.166;2022-10-30T13:28:42;19.50;99.90
16172;DHT22;8192;53.596;10.166;2022-10-30T13:31:18;19.40;99.90
16172;DHT22;8192;53.596;10.166;2022-10-30T13:33:52;19.40;99.90
16172;DHT22;8192;53.596;10.166;2022-10-30T13:36:27;19.30;99.90
16172;DHT22;8192;53.596;10.166;2022-10-30T13:39:00;19.40;99.90
16172;DHT22;8192;53.596;10.166;2022-10-30T13:41:34;19.40;99.90
16172;DHT22;8192;53.596;10.166;2022-10-30T13:44:17;19.40;99.90
16172;DHT22;8192;53.596;10.166;2022-10-30T13:46:58;19.40;99.90
16172;DHT22;8192;53.596;10.166;2022-10-30T13:49:42;19.30;99.90
16172;DHT22;8192;53.596;10.166;2022-10-30T13:52:15;19.30;99.90
16172;DHT22;8192;53.596;10.166;2022-10-30T13:54:46;19.20;99.90
16172;DHT22;8192;53.596;10.166;2022-10-30T13:57:18;19.20;99.90
16172;DHT22;8192;53.596;10.166;2022-10-30T13:59:55;19.10;99.90
16172;DHT22;8192;53.596;10.166;2022-10-30T14:02:35;19.00;99.90
16172;DHT22;8192;53.596;10.166;2022-10-30T14:05:14;18.90;99.90
16172;DHT22;8192;53.596;10.166;2022-10-30T14:07:50;18.80;99.90
16172;DHT22;8192;53.596;10.166;2022-10-30T14:10:24;18.80;99.90
16172;DHT22;8192;53.596;10.166;2022-10-30T14:13:12;18.60;99.90
16172;DHT22;8192;53.596;10.166;2022-10-30T14:15:43;18.40;99.90
16172;DHT22;8192;53.596;10.166;2022-10-30T14:21:36;18.30;99.90
16172;DHT22;8192;53.596;10.166;2022-10-30T14:24:10;18.20;99.90
16172;DHT22;8192;53.596;10.166;2022-10-30T14:26:40;18.00;99.90
16172;DHT22;8192;53.596;10.166;2022-10-30T14:29:29;18.40;99.90
16172;DHT22;8192;53.596;10.166;2022-10-30T14:31:59;17.80;99.90
16172;DHT22;8192;53.596;10.166;2022-10-30T14:34:43;17.80;99.90
16172;DHT22;8192;53.596;10.166;2022-10-30T14:37:10;17.70;99.90
16172;DHT22;8192;53.596;10.166;2022-10-30T14:39:50;17.70;99.90
16172;DHT22;8192;53.596;10.166;2022-10-30T14:42:22;17.60;99.90
16172;DHT22;8192;53.596;10.166;2022-10-30T14:45:05;17.50;99.90
16172;DHT22;8192;53.596;10.166;2022-10-30T14:47:46;17.40;99.90
16172;DHT22;8192;53.596;10.166;2022-10-30T14:50:34;17.30;99.90
16172;DHT22;8192;53.596;10.166;2022-10-30T14:53:29;17.10;99.90
16172;DHT22;8192;53.596;10.166;2022-10-30T14:56:04;17.00;99.90
16172;DHT22;8192;53.596;10.166;2022-10-30T14:58:34;16.90;99.90
16172;DHT22;8192;53.596;10.166;2022-10-30T15:01:26;17.20;99.90
16172;DHT22;8192;53.596;10.166;2022-10-30T15:04:13;16.80;99.90
16172;DHT22;8192;53.596;10.166;2022-10-30T15:06:58;16.60;99.90
16172;DHT22;8192;53.596;10.166;2022-10-30T15:09:39;16.50;99.90
16172;DHT22;8192;53.596;10.166;2022-10-30T15:12:27;16.30;99.90
16172;DHT22;8192;53.596;10.166;2022-10-30T15:15:00;16.20;99.90
16172;DHT22;8192;53.596;10.166;2022-10-30T15:17:32;16.10;99.90
16172;DHT22;8192;53.596;10.166;2022-10-30T15:20:15;16.00;99.90
16172;DHT22;8192;53.596;10.166;2022-10-30T15:22:45;16.00;99.90
16172;DHT22;8192;53.596;10.166;2022-10-30T15:25:16;15.90;99.90
16172;DHT22;8192;53.596;10.166;2022-10-30T15:27:45;15.70;99.90
16172;DHT22;8192;53.596;10.166;2022-10-30T15:30:22;15.50;99.90
16172;DHT22;8192;53.596;10.166;2022-10-30T15:32:49;15.30;99.90
16172;DHT22;8192;53.596;10.166;2022-10-30T15:35:20;15.20;99.90
16172;DHT22;8192;53.596;10.166;2022-10-30T15:37:58;15.00;99.90
16172;DHT22;8192;53.596;10.166;2022-10-30T15:40:28;15.70;99.90
16172;DHT22;8192;53.596;10.166;2022-10-30T15:42:56;14.90;99.90
16172;DHT22;8192;53.596;10.166;2022-10-30T15:45:29;14.80;99.90
16172;DHT22;8192;53.596;10.166;2022-10-30T15:48:01;14.60;99.90
16172;DHT22;8192;53.596;10.166;2022-10-30T15:50:31;14.60;99.90
16172;DHT22;8192;53.596;10.166;2022-10-30T15:52:59;14.40;99.90
16172;DHT22;8192;53.596;10.166;2022-10-30T15:55:28;14.30;99.90
16172;DHT22;8192;53.596;10.166;2022-10-30T15:57:58;14.20;99.90
16172;DHT22;8192;53.596;10.166;2022-10-30T16:00:28;14.10;99.90
16172;DHT22;8192;53.596;10.166;2022-10-30T16:03:00;14.00;99.90
16172;DHT22;8192;53.596;10.166;2022-10-30T16:05:35;13.90;99.90
16172;DHT22;8192;53.596;10.166;2022-10-30T16:08:03;13.80;99.90
16172;DHT22;8192;53.596;10.166;2022-10-30T16:10:44;13.70;99.90
16172;DHT22;8192;53.596;10.166;2022-10-30T16:13:15;13.50;99.90
16172;DHT22;8192;53.596;10.166;2022-10-30T16:15:44;13.50;99.90
16172;DHT22;8192;53.596;10.166;2022-10-30T16:18:18;13.30;99.90
16172;DHT22;8192;53.596;10.166;2022-10-30T16:20:50;14.20;99.90
16172;DHT22;8192;53.596;10.166;2022-10-30T16:23:18;13.20;99.90
16172;DHT22;8192;53.596;10.166;2022-10-30T16:25:46;13.20;99.90
16172;DHT22;8192;53.596;10.166;2022-10-30T16:28:26;13.10;99.90
16172;DHT22;8192;53.596;10.166;2022-10-30T16:30:56;13.10;99.90
16172;DHT22;8192;53.596;10.166;2022-10-30T16:33:37;13.00;99.90
16172;DHT22;8192;53.596;10.166;2022-10-30T16:36:06;13.00;99.90
16172;DHT22;8192;53.596;10.166;2022-10-30T16:38:36;13.00;99.90
16172;DHT22;8192;53.596;10.166;2022-10-30T16:41:04;13.10;99.90
16172;DHT22;8192;53.596;10.166;2022-10-30T16:43:38;13.30;99.90
16172;DHT22;8192;53.596;10.166;2022-10-30T16:46:31;13.50;99.90
16172;DHT22;8192;53.596;10.166;2022-10-30T16:49:15;13.40;99.90
16172;DHT22;8192;53.596;10.166;2022-10-30T16:51:45;13.20;99.90
16172;DHT22;8192;53.596;10.166;2022-10-30T16:54:19;13.20;99.90
16172;DHT22;8192;53.596;10.166;2022-10-30T16:56:47;13.20;99.90
16172;DHT22;8192;53.596;10.166;2022-10-30T16:59:23;13.10;99.90
16172;DHT22;8192;53.596;10.166;2022-10-30T17:01:52;13.00;99.90
16172;DHT22;8192;53.596;10.166;2022-10-30T17:04:25;12.90;99.90
16172;DHT22;8192;53.596;10.166;2022-10-30T17:10:43;12.70;99.90
16172;DHT22;8192;53.596;10.166;2022-10-30T17:16:21;12.60;99.90
16172;DHT22;8192;53.596;10.166;2022-10-30T17:18:49;12.60;99.90
16172;DHT22;8192;53.596;10.166;2022-10-30T17:21:19;12.60;99.90
16172;DHT22;8192;53.596;10.166;2022-10-30T17:30:30;12.40;99.90
16172;DHT22;8192;53.596;10.166;2022-10-30T17:36:03;12.40;99.90
16172;DHT22;8192;53.596;10.166;2022-10-30T17:38:31;12.30;99.90
16172;DHT22;8192;53.596;10.166;2022-10-30T17:41:00;12.20;99.90
16172;DHT22;8192;53.596;10.166;2022-10-30T17:43:31;12.10;99.90
16172;DHT22;8192;53.596;10.166;2022-10-30T17:46:00;12.10;99.90
16172;DHT22;8192;53.596;10.166;2022-10-30T17:48:28;12.40;99.90
16172;DHT22;8192;53.596;10.166;2022-10-30T17:50:55;12.10;99.90
16172;DHT22;8192;53.596;10.166;2022-10-30T18:03:32;11.90;99.90
16172;DHT22;8192;53.596;10.166;2022-10-30T18:06:01;11.80;99.90
16172;DHT22;8192;53.596;10.166;2022-10-30T18:11:51;11.80;99.90
16172;DHT22;8192;53.596;10.166;2022-10-30T18:14:18;11.90;99.90
16172;DHT22;8192;53.596;10.166;2022-10-30T18:16:45;11.80;99.90
16172;DHT22;8192;53.596;10.166;2022-10-30T18:19:14;11.80;99.90
16172;DHT22;8192;53.596;10.166;2022-10-30T18:21:42;11.80;99.90
16172;DHT22;8192;53.596;10.166;2022-10-30T18:24:13;11.70;99.90
16172;DHT22;8192;53.596;10.166;2022-10-30T18:26:41;11.70;99.90
16172;DHT22;8192;53.596;10.166;2022-10-30T18:29:09;11.80;99.90
16172;DHT22;8192;53.596;10.166;2022-10-30T18:31:40;11.60;99.90
16172;DHT22;8192;53.596;10.166;2022-10-30T18:34:13;11.60;99.90
16172;DHT22;8192;53.596;10.166;2022-10-30T18:36:42;11.60;99.90
16172;DHT22;8192;53.596;10.166;2022-10-30T18:39:09;11.50;99.90
16172;DHT22;8192;53.596;10.166;2022-10-30T18:41:40;13.30;99.90
16172;DHT22;8192;53.596;10.166;2022-10-30T18:44:11;11.50;99.90
16172;DHT22;8192;53.596;10.166;2022-10-30T18:49:06;11.30;99.90
16172;DHT22;8192;53.596;10.166;2022-10-30T18:51:35;11.20;99.90
16172;DHT22;8192;53.596;10.166;2022-10-30T18:54:10;11.00;99.90
16172;DHT22;8192;53.596;10.166;2022-10-30T18:56:37;11.00;99.90
16172;DHT22;8192;53.596;10.166;2022-10-30T18:59:04;11.00;99.90
16172;DHT22;8192;53.596;10.166;2022-10-30T19:01:32;11.00;99.90
16172;DHT22;8192;53.596;10.166;2022-10-30T19:03:59;11.10;99.90
16172;DHT22;8192;53.596;10.166;2022-10-30T19:06:28;11.10;99.90
16172;DHT22;8192;53.596;10.166;2022-10-30T19:08:56;11.10;99.90
16172;DHT22;8192;53.596;10.166;2022-10-30T19:11:25;11.10;99.90
16172;DHT22;8192;53.596;10.166;2022-10-30T19:13:52;11.10;99.90
16172;DHT22;8192;53.596;10.166;2022-10-30T19:16:21;11.10;99.90
16172;DHT22;8192;53.596;10.166;2022-10-30T19:18:49;11.70;99.90
16172;DHT22;8192;53.596;10.166;2022-10-30T19:21:19;11.00;99.90
16172;DHT22;8192;53.596;10.166;2022-10-30T19:26:53;10.90;99.90
16172;DHT22;8192;53.596;10.166;2022-10-30T19:29:21;10.80;99.90
16172;DHT22;8192;53.596;10.166;2022-10-30T19:32:04;10.60;99.90
16172;DHT22;8192;53.596;10.166;2022-10-30T19:34:33;11.30;99.90
16172;DHT22;8192;53.596;10.166;2022-10-30T19:37:03;10.60;99.90
16172;DHT22;8192;53.596;10.166;2022-10-30T19:39:51;10.60;99.90
16172;DHT22;8192;53.596;10.166;2022-10-30T19:42:20;10.60;99.90
16172;DHT22;8192;53.596;10.166;2022-10-30T19:44:54;10.50;99.90
16172;DHT22;8192;53.596;10.166;2022-10-30T19:47:21;12.20;99.90
16172;DHT22;8192;53.596;10.166;2022-10-30T19:49:48;9.50;99.90
16172;DHT22;8192;53.596;10.166;2022-10-30T19:52:17;10.60;99.90